Hauptseite
METAR-TAF:

METAR-TAF

Flughäfen :

Flughafen Sønderborg

Sønderborg, Dänemark

Breite: 54-58N, Länge: 009-47E, Höhe: 7 m

Beobachtung

Neuester Wetterbericht von vor 31 Minuten, um 01:50 UTC
Wind 15 kt aus Ost
Temperatur 21°C
Luftfeuchtigkeit 83%
Luftdruck 1009 hPa
Sichtweite 10 km oder mehr

METAR: EKSB 250150Z AUTO 10015KT 9999 BKN071/// BKN210/// 21/18 Q1009

Zeit: 04:21 (02:21 UTC)

Prognose

Neuester Wetterbericht von vor 19 Stunden und 45 Minuten, um 06:36 UTC
Gültige Prognose vom 24 um 06 UTC bis 24 um 10 UTC
Wind 2 kt aus unterschiedlichen Richtungen
Sichtweite 10 km oder mehr
Leicht bewölkt in der Höhe von 3000 ft
Übergehend zu
vom 24 um 06 UTC bis 24 um 08 UTC
Wind 10 kt aus Ost

TAF: EKSB 240636Z 2406/2410 VRB02KT 9999 FEW030 BECMG 2406/2408 09010KT

Wetterbeobachtungen und Prognosen von mehr als 4000 Flughäfen (METAR und TAF Bericht).

Die verfügbaren Stationen werden durch gelbe und rote Markierungen auf der Karte dargestellt.

Führen Sie die Maus auf sie, um den Namen der Station zu sehen.

Darauf klicken, um die Beobachtung von Wetterbeobachtungen und Prognosen zu sehen.

Um die Karte zu ändern : klicken Sie auf den grünen Tasten mit einem schwarzen Kreuz Zum Vergrößern, auf den grünen Button mit einem Gedankenstrich zu verkleinern, oder auf die grünen Pfeile für benachbarte Karten.


METAR-TAF: